<?xml version="1.0" encoding="UTF-8" standalone="no" ?>
<gpx xmlns="http://www.topografix.com/GPX/1/1" xmlns:xsi="http://www.w3.org/2001/XMLSchema-instance" xsi:schemaLocation="http://www.topografix.com/GPX/1/1 http://www.topografix.com/GPX/1/1/gpx.xsd" version="1.1" creator="VisuGPX - https://www.visugpx.com">
  <metadata>
    <name>balade dominicale à corcelles</name>
    <desc><![CDATA[[url=http://pilami.fr/photos/index.php?/category/180]photos ici[/url]]]></desc>
  </metadata>
  <trk>
    <name><![CDATA[ACTIVE LOG 004]]></name>
    <trkseg>
      <trkpt lat="47.32644" lon="4.95348">
        <ele>391.39379882812</ele>
        <time>2011-03-06T14:08:08Z</time>
      </trkpt>
      <trkpt lat="47.32648" lon="4.95337">
        <ele>392.35534667969</ele>
        <time>2011-03-06T14:08:12Z</time>
      </trkpt>
      <trkpt lat="47.32651" lon="4.95331">
        <ele>393.31652832031</ele>
        <time>2011-03-06T14:08:23Z</time>
      </trkpt>
      <trkpt lat="47.32655" lon="4.95325">
        <ele>395.23913574219</ele>
        <time>2011-03-06T14:08:33Z</time>
      </trkpt>
      <trkpt lat="47.32659" lon="4.95314">
        <ele>394.27795410156</ele>
        <time>2011-03-06T14:08:40Z</time>
      </trkpt>
      <trkpt lat="47.32655" lon="4.95312">
        <ele>394.27795410156</ele>
        <time>2011-03-06T14:08:45Z</time>
      </trkpt>
      <trkpt lat="47.32666" lon="4.95288">
        <ele>390.4326171875</ele>
        <time>2011-03-06T14:08:52Z</time>
      </trkpt>
      <trkpt lat="47.3267" lon="4.95277">
        <ele>387.54858398438</ele>
        <time>2011-03-06T14:09:01Z</time>
      </trkpt>
      <trkpt lat="47.32676" lon="4.9526">
        <ele>386.58740234375</ele>
        <time>2011-03-06T14:09:07Z</time>
      </trkpt>
      <trkpt lat="47.32683" lon="4.95252">
        <ele>383.70324707031</ele>
        <time>2011-03-06T14:09:18Z</time>
      </trkpt>
      <trkpt lat="47.32681" lon="4.95254">
        <ele>383.22265625</ele>
        <time>2011-03-06T14:09:22Z</time>
      </trkpt>
      <trkpt lat="47.32678" lon="4.9525">
        <ele>381.78063964844</ele>
        <time>2011-03-06T14:09:28Z</time>
      </trkpt>
      <trkpt lat="47.32683" lon="4.95239">
        <ele>381.30004882812</ele>
        <time>2011-03-06T14:09:46Z</time>
      </trkpt>
      <trkpt lat="47.32687" lon="4.95209">
        <ele>376.49353027344</ele>
        <time>2011-03-06T14:10:25Z</time>
      </trkpt>
      <trkpt lat="47.32681" lon="4.95217">
        <ele>380.81945800781</ele>
        <time>2011-03-06T14:11:08Z</time>
      </trkpt>
      <trkpt lat="47.32674" lon="4.95228">
        <ele>380.81945800781</ele>
        <time>2011-03-06T14:11:19Z</time>
      </trkpt>
      <trkpt lat="47.32676" lon="4.95226">
        <ele>381.30004882812</ele>
        <time>2011-03-06T14:11:40Z</time>
      </trkpt>
      <trkpt lat="47.32678" lon="4.95211">
        <ele>380.33874511719</ele>
        <time>2011-03-06T14:11:49Z</time>
      </trkpt>
      <trkpt lat="47.32685" lon="4.95198">
        <ele>376.49353027344</ele>
        <time>2011-03-06T14:11:57Z</time>
      </trkpt>
      <trkpt lat="47.32698" lon="4.95172">
        <ele>355.34448242188</ele>
        <time>2011-03-06T14:12:33Z</time>
      </trkpt>
      <trkpt lat="47.32702" lon="4.9517">
        <ele>358.708984375</ele>
        <time>2011-03-06T14:12:45Z</time>
      </trkpt>
      <trkpt lat="47.32704" lon="4.95166">
        <ele>358.708984375</ele>
        <time>2011-03-06T14:12:47Z</time>
      </trkpt>
      <trkpt lat="47.32704" lon="4.95164">
        <ele>358.22839355469</ele>
        <time>2011-03-06T14:12:49Z</time>
      </trkpt>
      <trkpt lat="47.32711" lon="4.95147">
        <ele>356.30578613281</ele>
        <time>2011-03-06T14:13:00Z</time>
      </trkpt>
      <trkpt lat="47.32715" lon="4.95136">
        <ele>354.86376953125</ele>
        <time>2011-03-06T14:13:09Z</time>
      </trkpt>
      <trkpt lat="47.32717" lon="4.95125">
        <ele>351.97985839844</ele>
        <time>2011-03-06T14:13:16Z</time>
      </trkpt>
      <trkpt lat="47.32723" lon="4.95104">
        <ele>343.80859375</ele>
        <time>2011-03-06T14:13:29Z</time>
      </trkpt>
      <trkpt lat="47.32728" lon="4.95089">
        <ele>338.04077148438</ele>
        <time>2011-03-06T14:13:39Z</time>
      </trkpt>
      <trkpt lat="47.32754" lon="4.95067">
        <ele>330.35021972656</ele>
        <time>2011-03-06T14:14:00Z</time>
      </trkpt>
      <trkpt lat="47.32754" lon="4.95059">
        <ele>322.65966796875</ele>
        <time>2011-03-06T14:14:14Z</time>
      </trkpt>
      <trkpt lat="47.32758" lon="4.95039">
        <ele>319.77563476562</ele>
        <time>2011-03-06T14:14:27Z</time>
      </trkpt>
      <trkpt lat="47.32758" lon="4.95037">
        <ele>319.29504394531</ele>
        <time>2011-03-06T14:14:29Z</time>
      </trkpt>
      <trkpt lat="47.32758" lon="4.95024">
        <ele>318.33361816406</ele>
        <time>2011-03-06T14:14:43Z</time>
      </trkpt>
      <trkpt lat="47.3276" lon="4.95007">
        <ele>316.89172363281</ele>
        <time>2011-03-06T14:14:51Z</time>
      </trkpt>
      <trkpt lat="47.32764" lon="4.94994">
        <ele>314.48840332031</ele>
        <time>2011-03-06T14:15:01Z</time>
      </trkpt>
      <trkpt lat="47.32775" lon="4.94966">
        <ele>306.31726074219</ele>
        <time>2011-03-06T14:15:23Z</time>
      </trkpt>
      <trkpt lat="47.32775" lon="4.94964">
        <ele>305.83666992188</ele>
        <time>2011-03-06T14:15:24Z</time>
      </trkpt>
      <trkpt lat="47.32781" lon="4.94958">
        <ele>303.43322753906</ele>
        <time>2011-03-06T14:15:34Z</time>
      </trkpt>
      <trkpt lat="47.32786" lon="4.94962">
        <ele>304.87524414062</ele>
        <time>2011-03-06T14:15:44Z</time>
      </trkpt>
      <trkpt lat="47.32775" lon="4.94951">
        <ele>300.54931640625</ele>
        <time>2011-03-06T14:16:05Z</time>
      </trkpt>
      <trkpt lat="47.32777" lon="4.94941">
        <ele>298.62670898438</ele>
        <time>2011-03-06T14:16:12Z</time>
      </trkpt>
      <trkpt lat="47.32788" lon="4.94919">
        <ele>293.82006835938</ele>
        <time>2011-03-06T14:16:28Z</time>
      </trkpt>
      <trkpt lat="47.32796" lon="4.94895">
        <ele>289.494140625</ele>
        <time>2011-03-06T14:16:49Z</time>
      </trkpt>
      <trkpt lat="47.32799" lon="4.94876">
        <ele>283.72619628906</ele>
        <time>2011-03-06T14:17:10Z</time>
      </trkpt>
      <trkpt lat="47.32826" lon="4.94865">
        <ele>263.53857421875</ele>
        <time>2011-03-06T14:18:51Z</time>
      </trkpt>
      <trkpt lat="47.32833" lon="4.94865">
        <ele>262.5771484375</ele>
        <time>2011-03-06T14:18:56Z</time>
      </trkpt>
      <trkpt lat="47.32841" lon="4.94872">
        <ele>258.73193359375</ele>
        <time>2011-03-06T14:19:08Z</time>
      </trkpt>
      <trkpt lat="47.3285" lon="4.94876">
        <ele>260.17395019531</ele>
        <time>2011-03-06T14:19:41Z</time>
      </trkpt>
      <trkpt lat="47.32867" lon="4.94876">
        <ele>267.38391113281</ele>
        <time>2011-03-06T14:20:16Z</time>
      </trkpt>
      <trkpt lat="47.3288" lon="4.94872">
        <ele>277.47766113281</ele>
        <time>2011-03-06T14:20:38Z</time>
      </trkpt>
      <trkpt lat="47.32899" lon="4.94876">
        <ele>294.78137207031</ele>
        <time>2011-03-06T14:21:25Z</time>
      </trkpt>
      <trkpt lat="47.32919" lon="4.94885">
        <ele>310.16247558594</ele>
        <time>2011-03-06T14:22:09Z</time>
      </trkpt>
      <trkpt lat="47.32923" lon="4.94883">
        <ele>314.0078125</ele>
        <time>2011-03-06T14:22:34Z</time>
      </trkpt>
      <trkpt lat="47.32929" lon="4.94878">
        <ele>320.25634765625</ele>
        <time>2011-03-06T14:22:57Z</time>
      </trkpt>
      <trkpt lat="47.32934" lon="4.94906">
        <ele>334.19543457031</ele>
        <time>2011-03-06T14:24:54Z</time>
      </trkpt>
      <trkpt lat="47.32934" lon="4.94913">
        <ele>331.3115234375</ele>
        <time>2011-03-06T14:25:13Z</time>
      </trkpt>
      <trkpt lat="47.32942" lon="4.94925">
        <ele>331.79211425781</ele>
        <time>2011-03-06T14:25:43Z</time>
      </trkpt>
      <trkpt lat="47.32947" lon="4.94941">
        <ele>332.27282714844</ele>
        <time>2011-03-06T14:26:03Z</time>
      </trkpt>
      <trkpt lat="47.32957" lon="4.94953">
        <ele>337.07946777344</ele>
        <time>2011-03-06T14:28:04Z</time>
      </trkpt>
      <trkpt lat="47.32968" lon="4.94964">
        <ele>340.44409179688</ele>
        <time>2011-03-06T14:28:24Z</time>
      </trkpt>
      <trkpt lat="47.33002" lon="4.95033">
        <ele>337.56005859375</ele>
        <time>2011-03-06T14:33:26Z</time>
      </trkpt>
      <trkpt lat="47.33" lon="4.95039">
        <ele>340.44409179688</ele>
        <time>2011-03-06T14:34:09Z</time>
      </trkpt>
      <trkpt lat="47.32994" lon="4.9505">
        <ele>347.17321777344</ele>
        <time>2011-03-06T14:34:32Z</time>
      </trkpt>
      <trkpt lat="47.32992" lon="4.95063">
        <ele>351.01843261719</ele>
        <time>2011-03-06T14:34:43Z</time>
      </trkpt>
      <trkpt lat="47.32987" lon="4.95078">
        <ele>353.421875</ele>
        <time>2011-03-06T14:34:53Z</time>
      </trkpt>
      <trkpt lat="47.32985" lon="4.9508">
        <ele>354.38317871094</ele>
        <time>2011-03-06T14:34:56Z</time>
      </trkpt>
      <trkpt lat="47.32983" lon="4.9508">
        <ele>355.8251953125</ele>
        <time>2011-03-06T14:35:09Z</time>
      </trkpt>
      <trkpt lat="47.32985" lon="4.95082">
        <ele>356.78637695312</ele>
        <time>2011-03-06T14:35:47Z</time>
      </trkpt>
      <trkpt lat="47.32983" lon="4.95082">
        <ele>358.708984375</ele>
        <time>2011-03-06T14:36:00Z</time>
      </trkpt>
      <trkpt lat="47.3299" lon="4.9508">
        <ele>357.74780273438</ele>
        <time>2011-03-06T14:36:11Z</time>
      </trkpt>
      <trkpt lat="47.3299" lon="4.95082">
        <ele>357.26708984375</ele>
        <time>2011-03-06T14:36:12Z</time>
      </trkpt>
      <trkpt lat="47.32996" lon="4.95089">
        <ele>350.53784179688</ele>
        <time>2011-03-06T14:36:23Z</time>
      </trkpt>
      <trkpt lat="47.33005" lon="4.95095">
        <ele>350.53784179688</ele>
        <time>2011-03-06T14:36:28Z</time>
      </trkpt>
      <trkpt lat="47.33013" lon="4.95104">
        <ele>351.49914550781</ele>
        <time>2011-03-06T14:36:38Z</time>
      </trkpt>
      <trkpt lat="47.33017" lon="4.95108">
        <ele>351.01843261719</ele>
        <time>2011-03-06T14:36:45Z</time>
      </trkpt>
      <trkpt lat="47.3302" lon="4.95114">
        <ele>350.05725097656</ele>
        <time>2011-03-06T14:36:48Z</time>
      </trkpt>
      <trkpt lat="47.3302" lon="4.95119">
        <ele>348.13464355469</ele>
        <time>2011-03-06T14:36:53Z</time>
      </trkpt>
      <trkpt lat="47.33011" lon="4.95129">
        <ele>345.73132324219</ele>
        <time>2011-03-06T14:37:03Z</time>
      </trkpt>
      <trkpt lat="47.33005" lon="4.95144">
        <ele>343.80859375</ele>
        <time>2011-03-06T14:37:14Z</time>
      </trkpt>
      <trkpt lat="47.33005" lon="4.95149">
        <ele>343.80859375</ele>
        <time>2011-03-06T14:37:18Z</time>
      </trkpt>
      <trkpt lat="47.33002" lon="4.95151">
        <ele>343.32788085938</ele>
        <time>2011-03-06T14:37:20Z</time>
      </trkpt>
      <trkpt lat="47.32998" lon="4.95157">
        <ele>342.84729003906</ele>
        <time>2011-03-06T14:37:28Z</time>
      </trkpt>
      <trkpt lat="47.32994" lon="4.9517">
        <ele>343.32788085938</ele>
        <time>2011-03-06T14:37:36Z</time>
      </trkpt>
      <trkpt lat="47.3299" lon="4.95181">
        <ele>343.80859375</ele>
        <time>2011-03-06T14:37:48Z</time>
      </trkpt>
      <trkpt lat="47.32981" lon="4.95192">
        <ele>344.77001953125</ele>
        <time>2011-03-06T14:38:00Z</time>
      </trkpt>
      <trkpt lat="47.32977" lon="4.95194">
        <ele>344.77001953125</ele>
        <time>2011-03-06T14:38:04Z</time>
      </trkpt>
      <trkpt lat="47.32972" lon="4.95215">
        <ele>344.77001953125</ele>
        <time>2011-03-06T14:38:27Z</time>
      </trkpt>
      <trkpt lat="47.32962" lon="4.95297">
        <ele>335.63732910156</ele>
        <time>2011-03-06T14:40:40Z</time>
      </trkpt>
      <trkpt lat="47.32962" lon="4.95312">
        <ele>333.71472167969</ele>
        <time>2011-03-06T14:40:53Z</time>
      </trkpt>
      <trkpt lat="47.3297" lon="4.95376">
        <ele>322.65966796875</ele>
        <time>2011-03-06T14:42:45Z</time>
      </trkpt>
      <trkpt lat="47.32966" lon="4.95385">
        <ele>319.77563476562</ele>
        <time>2011-03-06T14:43:00Z</time>
      </trkpt>
      <trkpt lat="47.3296" lon="4.954">
        <ele>318.33361816406</ele>
        <time>2011-03-06T14:43:16Z</time>
      </trkpt>
      <trkpt lat="47.32923" lon="4.95548">
        <ele>305.35595703125</ele>
        <time>2011-03-06T14:45:46Z</time>
      </trkpt>
      <trkpt lat="47.32925" lon="4.95625">
        <ele>332.27282714844</ele>
        <time>2011-03-06T14:46:57Z</time>
      </trkpt>
      <trkpt lat="47.32929" lon="4.95651">
        <ele>362.07373046875</ele>
        <time>2011-03-06T14:47:22Z</time>
      </trkpt>
      <trkpt lat="47.32925" lon="4.95653">
        <ele>363.51574707031</ele>
        <time>2011-03-06T14:47:26Z</time>
      </trkpt>
      <trkpt lat="47.32925" lon="4.95655">
        <ele>364.95764160156</ele>
        <time>2011-03-06T14:47:42Z</time>
      </trkpt>
      <trkpt lat="47.32925" lon="4.95655">
        <ele>365.43835449219</ele>
        <time>2011-03-06T14:47:52Z</time>
      </trkpt>
      <trkpt lat="47.32927" lon="4.95655">
        <ele>366.39953613281</ele>
        <time>2011-03-06T14:48:04Z</time>
      </trkpt>
      <trkpt lat="47.32927" lon="4.95657">
        <ele>366.39953613281</ele>
        <time>2011-03-06T14:48:15Z</time>
      </trkpt>
      <trkpt lat="47.32927" lon="4.95661">
        <ele>367.36096191406</ele>
        <time>2011-03-06T14:48:19Z</time>
      </trkpt>
      <trkpt lat="47.32929" lon="4.95664">
        <ele>367.84155273438</ele>
        <time>2011-03-06T14:48:22Z</time>
      </trkpt>
      <trkpt lat="47.32932" lon="4.95666">
        <ele>369.28369140625</ele>
        <time>2011-03-06T14:48:30Z</time>
      </trkpt>
      <trkpt lat="47.32934" lon="4.95668">
        <ele>370.24487304688</ele>
        <time>2011-03-06T14:48:38Z</time>
      </trkpt>
      <trkpt lat="47.32942" lon="4.95672">
        <ele>374.57080078125</ele>
        <time>2011-03-06T14:48:49Z</time>
      </trkpt>
      <trkpt lat="47.32953" lon="4.95679">
        <ele>378.89685058594</ele>
        <time>2011-03-06T14:49:05Z</time>
      </trkpt>
      <trkpt lat="47.32957" lon="4.95681">
        <ele>380.81945800781</ele>
        <time>2011-03-06T14:49:13Z</time>
      </trkpt>
      <trkpt lat="47.32968" lon="4.95685">
        <ele>384.18408203125</ele>
        <time>2011-03-06T14:49:21Z</time>
      </trkpt>
      <trkpt lat="47.32977" lon="4.95698">
        <ele>386.58740234375</ele>
        <time>2011-03-06T14:49:33Z</time>
      </trkpt>
      <trkpt lat="47.32977" lon="4.95702">
        <ele>386.58740234375</ele>
        <time>2011-03-06T14:49:41Z</time>
      </trkpt>
      <trkpt lat="47.32981" lon="4.95704">
        <ele>386.58740234375</ele>
        <time>2011-03-06T14:49:45Z</time>
      </trkpt>
      <trkpt lat="47.32985" lon="4.95717">
        <ele>388.51000976562</ele>
        <time>2011-03-06T14:49:53Z</time>
      </trkpt>
      <trkpt lat="47.32987" lon="4.95722">
        <ele>389.47119140625</ele>
        <time>2011-03-06T14:50:02Z</time>
      </trkpt>
      <trkpt lat="47.3299" lon="4.95722">
        <ele>389.47119140625</ele>
        <time>2011-03-06T14:50:03Z</time>
      </trkpt>
      <trkpt lat="47.32994" lon="4.95732">
        <ele>390.4326171875</ele>
        <time>2011-03-06T14:50:10Z</time>
      </trkpt>
      <trkpt lat="47.32998" lon="4.95741">
        <ele>390.91320800781</ele>
        <time>2011-03-06T14:50:17Z</time>
      </trkpt>
      <trkpt lat="47.33" lon="4.95747">
        <ele>390.91320800781</ele>
        <time>2011-03-06T14:50:20Z</time>
      </trkpt>
      <trkpt lat="47.33005" lon="4.95752">
        <ele>391.87451171875</ele>
        <time>2011-03-06T14:50:24Z</time>
      </trkpt>
      <trkpt lat="47.33007" lon="4.95758">
        <ele>392.8359375</ele>
        <time>2011-03-06T14:50:28Z</time>
      </trkpt>
      <trkpt lat="47.33013" lon="4.95767">
        <ele>393.79724121094</ele>
        <time>2011-03-06T14:50:36Z</time>
      </trkpt>
      <trkpt lat="47.33013" lon="4.95769">
        <ele>394.27795410156</ele>
        <time>2011-03-06T14:50:38Z</time>
      </trkpt>
      <trkpt lat="47.33015" lon="4.95769">
        <ele>394.27795410156</ele>
        <time>2011-03-06T14:50:40Z</time>
      </trkpt>
      <trkpt lat="47.33024" lon="4.95771">
        <ele>395.23913574219</ele>
        <time>2011-03-06T14:50:49Z</time>
      </trkpt>
      <trkpt lat="47.3303" lon="4.95771">
        <ele>396.20056152344</ele>
        <time>2011-03-06T14:50:56Z</time>
      </trkpt>
      <trkpt lat="47.33043" lon="4.95771">
        <ele>397.16174316406</ele>
        <time>2011-03-06T14:51:09Z</time>
      </trkpt>
      <trkpt lat="47.33054" lon="4.95773">
        <ele>397.16174316406</ele>
        <time>2011-03-06T14:51:20Z</time>
      </trkpt>
      <trkpt lat="47.33058" lon="4.95775">
        <ele>397.16174316406</ele>
        <time>2011-03-06T14:51:25Z</time>
      </trkpt>
      <trkpt lat="47.33073" lon="4.95775">
        <ele>397.64245605469</ele>
        <time>2011-03-06T14:51:39Z</time>
      </trkpt>
      <trkpt lat="47.3309" lon="4.95777">
        <ele>397.16174316406</ele>
        <time>2011-03-06T14:51:55Z</time>
      </trkpt>
      <trkpt lat="47.33095" lon="4.9578">
        <ele>397.16174316406</ele>
        <time>2011-03-06T14:52:01Z</time>
      </trkpt>
      <trkpt lat="47.33105" lon="4.95784">
        <ele>396.68115234375</ele>
        <time>2011-03-06T14:52:10Z</time>
      </trkpt>
      <trkpt lat="47.33116" lon="4.95795">
        <ele>394.75854492188</ele>
        <time>2011-03-06T14:52:24Z</time>
      </trkpt>
      <trkpt lat="47.33127" lon="4.95805">
        <ele>392.8359375</ele>
        <time>2011-03-06T14:52:39Z</time>
      </trkpt>
      <trkpt lat="47.33131" lon="4.95814">
        <ele>389.95190429688</ele>
        <time>2011-03-06T14:52:50Z</time>
      </trkpt>
      <trkpt lat="47.33138" lon="4.9582">
        <ele>390.4326171875</ele>
        <time>2011-03-06T14:53:00Z</time>
      </trkpt>
      <trkpt lat="47.33142" lon="4.95825">
        <ele>390.4326171875</ele>
        <time>2011-03-06T14:53:09Z</time>
      </trkpt>
      <trkpt lat="47.33148" lon="4.95831">
        <ele>388.99060058594</ele>
        <time>2011-03-06T14:53:20Z</time>
      </trkpt>
      <trkpt lat="47.3315" lon="4.95833">
        <ele>388.51000976562</ele>
        <time>2011-03-06T14:53:24Z</time>
      </trkpt>
      <trkpt lat="47.33153" lon="4.95835">
        <ele>388.51000976562</ele>
        <time>2011-03-06T14:53:26Z</time>
      </trkpt>
      <trkpt lat="47.33159" lon="4.95848">
        <ele>388.029296875</ele>
        <time>2011-03-06T14:53:37Z</time>
      </trkpt>
      <trkpt lat="47.33159" lon="4.9585">
        <ele>388.029296875</ele>
        <time>2011-03-06T14:53:38Z</time>
      </trkpt>
      <trkpt lat="47.33161" lon="4.95852">
        <ele>388.029296875</ele>
        <time>2011-03-06T14:53:40Z</time>
      </trkpt>
      <trkpt lat="47.33163" lon="4.95857">
        <ele>388.029296875</ele>
        <time>2011-03-06T14:53:45Z</time>
      </trkpt>
      <trkpt lat="47.3317" lon="4.9587">
        <ele>388.51000976562</ele>
        <time>2011-03-06T14:53:54Z</time>
      </trkpt>
      <trkpt lat="47.3317" lon="4.95874">
        <ele>388.51000976562</ele>
        <time>2011-03-06T14:53:57Z</time>
      </trkpt>
      <trkpt lat="47.33174" lon="4.95878">
        <ele>387.54858398438</ele>
        <time>2011-03-06T14:54:02Z</time>
      </trkpt>
      <trkpt lat="47.33176" lon="4.9588">
        <ele>387.54858398438</ele>
        <time>2011-03-06T14:54:05Z</time>
      </trkpt>
      <trkpt lat="47.33183" lon="4.95887">
        <ele>386.58740234375</ele>
        <time>2011-03-06T14:54:14Z</time>
      </trkpt>
      <trkpt lat="47.33191" lon="4.95895">
        <ele>385.14538574219</ele>
        <time>2011-03-06T14:54:23Z</time>
      </trkpt>
      <trkpt lat="47.33198" lon="4.959">
        <ele>384.18408203125</ele>
        <time>2011-03-06T14:54:31Z</time>
      </trkpt>
      <trkpt lat="47.33204" lon="4.95902">
        <ele>382.74206542969</ele>
        <time>2011-03-06T14:54:38Z</time>
      </trkpt>
      <trkpt lat="47.33211" lon="4.95902">
        <ele>381.30004882812</ele>
        <time>2011-03-06T14:54:50Z</time>
      </trkpt>
      <trkpt lat="47.33211" lon="4.959">
        <ele>381.78063964844</ele>
        <time>2011-03-06T14:55:02Z</time>
      </trkpt>
      <trkpt lat="47.33211" lon="4.95898">
        <ele>381.78063964844</ele>
        <time>2011-03-06T14:55:26Z</time>
      </trkpt>
      <trkpt lat="47.33211" lon="4.95887">
        <ele>381.78063964844</ele>
        <time>2011-03-06T14:55:39Z</time>
      </trkpt>
      <trkpt lat="47.33208" lon="4.9588">
        <ele>376.49353027344</ele>
        <time>2011-03-06T14:56:01Z</time>
      </trkpt>
      <trkpt lat="47.33208" lon="4.95883">
        <ele>375.53210449219</ele>
        <time>2011-03-06T14:56:12Z</time>
      </trkpt>
      <trkpt lat="47.33211" lon="4.95889">
        <ele>375.05151367188</ele>
        <time>2011-03-06T14:56:16Z</time>
      </trkpt>
      <trkpt lat="47.33215" lon="4.95891">
        <ele>375.53210449219</ele>
        <time>2011-03-06T14:56:27Z</time>
      </trkpt>
      <trkpt lat="47.33215" lon="4.95891">
        <ele>375.53210449219</ele>
        <time>2011-03-06T14:56:28Z</time>
      </trkpt>
      <trkpt lat="47.33215" lon="4.95891">
        <ele>375.53210449219</ele>
        <time>2011-03-06T14:56:39Z</time>
      </trkpt>
      <trkpt lat="47.33217" lon="4.95904">
        <ele>376.01281738281</ele>
        <time>2011-03-06T14:56:50Z</time>
      </trkpt>
      <trkpt lat="47.33219" lon="4.95906">
        <ele>376.49353027344</ele>
        <time>2011-03-06T14:57:01Z</time>
      </trkpt>
      <trkpt lat="47.33219" lon="4.95906">
        <ele>376.01281738281</ele>
        <time>2011-03-06T14:57:03Z</time>
      </trkpt>
      <trkpt lat="47.33223" lon="4.95904">
        <ele>375.05151367188</ele>
        <time>2011-03-06T14:57:16Z</time>
      </trkpt>
      <trkpt lat="47.33226" lon="4.95904">
        <ele>375.53210449219</ele>
        <time>2011-03-06T14:57:26Z</time>
      </trkpt>
      <trkpt lat="47.3323" lon="4.95904">
        <ele>374.57080078125</ele>
        <time>2011-03-06T14:57:33Z</time>
      </trkpt>
      <trkpt lat="47.33234" lon="4.95898">
        <ele>374.09008789062</ele>
        <time>2011-03-06T14:57:40Z</time>
      </trkpt>
      <trkpt lat="47.33232" lon="4.95889">
        <ele>372.16748046875</ele>
        <time>2011-03-06T14:57:49Z</time>
      </trkpt>
      <trkpt lat="47.3323" lon="4.95885">
        <ele>372.64819335938</ele>
        <time>2011-03-06T14:57:59Z</time>
      </trkpt>
      <trkpt lat="47.3323" lon="4.95883">
        <ele>372.64819335938</ele>
        <time>2011-03-06T14:58:13Z</time>
      </trkpt>
      <trkpt lat="47.3323" lon="4.95883">
        <ele>372.64819335938</ele>
        <time>2011-03-06T14:58:22Z</time>
      </trkpt>
      <trkpt lat="47.3323" lon="4.95878">
        <ele>373.12890625</ele>
        <time>2011-03-06T14:58:28Z</time>
      </trkpt>
      <trkpt lat="47.33223" lon="4.95874">
        <ele>370.7255859375</ele>
        <time>2011-03-06T14:58:39Z</time>
      </trkpt>
      <trkpt lat="47.33221" lon="4.95872">
        <ele>370.24487304688</ele>
        <time>2011-03-06T14:58:49Z</time>
      </trkpt>
      <trkpt lat="47.33221" lon="4.9587">
        <ele>371.68688964844</ele>
        <time>2011-03-06T14:59:03Z</time>
      </trkpt>
      <trkpt lat="47.33219" lon="4.9587">
        <ele>372.16748046875</ele>
        <time>2011-03-06T14:59:34Z</time>
      </trkpt>
      <trkpt lat="47.33219" lon="4.9587">
        <ele>372.64819335938</ele>
        <time>2011-03-06T15:00:42Z</time>
      </trkpt>
      <trkpt lat="47.33217" lon="4.95863">
        <ele>371.68688964844</ele>
        <time>2011-03-06T15:01:59Z</time>
      </trkpt>
      <trkpt lat="47.33219" lon="4.95867">
        <ele>371.68688964844</ele>
        <time>2011-03-06T15:02:05Z</time>
      </trkpt>
      <trkpt lat="47.33221" lon="4.95878">
        <ele>369.28369140625</ele>
        <time>2011-03-06T15:02:15Z</time>
      </trkpt>
      <trkpt lat="47.33221" lon="4.95885">
        <ele>364.47692871094</ele>
        <time>2011-03-06T15:02:31Z</time>
      </trkpt>
      <trkpt lat="47.33223" lon="4.95878">
        <ele>369.76428222656</ele>
        <time>2011-03-06T15:06:24Z</time>
      </trkpt>
      <trkpt lat="47.33221" lon="4.9587">
        <ele>373.12890625</ele>
        <time>2011-03-06T15:06:38Z</time>
      </trkpt>
      <trkpt lat="47.33223" lon="4.9587">
        <ele>372.16748046875</ele>
        <time>2011-03-06T15:07:00Z</time>
      </trkpt>
      <trkpt lat="47.33226" lon="4.95872">
        <ele>371.20629882812</ele>
        <time>2011-03-06T15:07:35Z</time>
      </trkpt>
      <trkpt lat="47.33221" lon="4.95874">
        <ele>373.60949707031</ele>
        <time>2011-03-06T15:07:49Z</time>
      </trkpt>
      <trkpt lat="47.33219" lon="4.95872">
        <ele>374.57080078125</ele>
        <time>2011-03-06T15:08:00Z</time>
      </trkpt>
      <trkpt lat="47.33219" lon="4.95872">
        <ele>374.57080078125</ele>
        <time>2011-03-06T15:08:01Z</time>
      </trkpt>
      <trkpt lat="47.33219" lon="4.95867">
        <ele>374.09008789062</ele>
        <time>2011-03-06T15:08:04Z</time>
      </trkpt>
      <trkpt lat="47.33215" lon="4.95859">
        <ele>373.60949707031</ele>
        <time>2011-03-06T15:08:15Z</time>
      </trkpt>
      <trkpt lat="47.33213" lon="4.95861">
        <ele>374.09008789062</ele>
        <time>2011-03-06T15:08:56Z</time>
      </trkpt>
      <trkpt lat="47.33215" lon="4.9587">
        <ele>374.57080078125</ele>
        <time>2011-03-06T15:12:02Z</time>
      </trkpt>
      <trkpt lat="47.33217" lon="4.95872">
        <ele>375.05151367188</ele>
        <time>2011-03-06T15:12:46Z</time>
      </trkpt>
      <trkpt lat="47.33223" lon="4.95874">
        <ele>371.20629882812</ele>
        <time>2011-03-06T15:12:55Z</time>
      </trkpt>
      <trkpt lat="47.33226" lon="4.95883">
        <ele>369.76428222656</ele>
        <time>2011-03-06T15:13:06Z</time>
      </trkpt>
      <trkpt lat="47.33228" lon="4.95885">
        <ele>368.80297851562</ele>
        <time>2011-03-06T15:13:16Z</time>
      </trkpt>
      <trkpt lat="47.3323" lon="4.95889">
        <ele>368.80297851562</ele>
        <time>2011-03-06T15:13:19Z</time>
      </trkpt>
      <trkpt lat="47.33232" lon="4.95893">
        <ele>368.80297851562</ele>
        <time>2011-03-06T15:13:22Z</time>
      </trkpt>
      <trkpt lat="47.33234" lon="4.95904">
        <ele>370.7255859375</ele>
        <time>2011-03-06T15:13:29Z</time>
      </trkpt>
      <trkpt lat="47.33228" lon="4.95913">
        <ele>374.57080078125</ele>
        <time>2011-03-06T15:13:42Z</time>
      </trkpt>
      <trkpt lat="47.33232" lon="4.95906">
        <ele>374.09008789062</ele>
        <time>2011-03-06T15:13:52Z</time>
      </trkpt>
      <trkpt lat="47.3323" lon="4.95889">
        <ele>372.64819335938</ele>
        <time>2011-03-06T15:14:02Z</time>
      </trkpt>
      <trkpt lat="47.33226" lon="4.95889">
        <ele>372.16748046875</ele>
        <time>2011-03-06T15:14:07Z</time>
      </trkpt>
      <trkpt lat="47.33226" lon="4.95889">
        <ele>371.68688964844</ele>
        <time>2011-03-06T15:14:26Z</time>
      </trkpt>
      <trkpt lat="47.33226" lon="4.95887">
        <ele>370.24487304688</ele>
        <time>2011-03-06T15:15:38Z</time>
      </trkpt>
      <trkpt lat="47.3323" lon="4.95893">
        <ele>367.84155273438</ele>
        <time>2011-03-06T15:15:44Z</time>
      </trkpt>
      <trkpt lat="47.33232" lon="4.95906">
        <ele>368.80297851562</ele>
        <time>2011-03-06T15:15:53Z</time>
      </trkpt>
      <trkpt lat="47.33228" lon="4.9591">
        <ele>370.7255859375</ele>
        <time>2011-03-06T15:15:57Z</time>
      </trkpt>
      <trkpt lat="47.33223" lon="4.9591">
        <ele>371.20629882812</ele>
        <time>2011-03-06T15:16:01Z</time>
      </trkpt>
      <trkpt lat="47.33217" lon="4.95908">
        <ele>373.60949707031</ele>
        <time>2011-03-06T15:16:10Z</time>
      </trkpt>
      <trkpt lat="47.33215" lon="4.95908">
        <ele>373.12890625</ele>
        <time>2011-03-06T15:16:12Z</time>
      </trkpt>
      <trkpt lat="47.33213" lon="4.95917">
        <ele>373.60949707031</ele>
        <time>2011-03-06T15:16:18Z</time>
      </trkpt>
      <trkpt lat="47.33211" lon="4.95925">
        <ele>375.53210449219</ele>
        <time>2011-03-06T15:16:27Z</time>
      </trkpt>
      <trkpt lat="47.33213" lon="4.95934">
        <ele>376.01281738281</ele>
        <time>2011-03-06T15:16:32Z</time>
      </trkpt>
      <trkpt lat="47.33217" lon="4.95943">
        <ele>376.49353027344</ele>
        <time>2011-03-06T15:16:37Z</time>
      </trkpt>
      <trkpt lat="47.33219" lon="4.95947">
        <ele>376.49353027344</ele>
        <time>2011-03-06T15:16:41Z</time>
      </trkpt>
      <trkpt lat="47.33221" lon="4.95953">
        <ele>376.49353027344</ele>
        <time>2011-03-06T15:16:45Z</time>
      </trkpt>
      <trkpt lat="47.33226" lon="4.95966">
        <ele>376.97424316406</ele>
        <time>2011-03-06T15:16:54Z</time>
      </trkpt>
      <trkpt lat="47.3323" lon="4.95981">
        <ele>376.49353027344</ele>
        <time>2011-03-06T15:17:03Z</time>
      </trkpt>
      <trkpt lat="47.33232" lon="4.9599">
        <ele>376.49353027344</ele>
        <time>2011-03-06T15:17:08Z</time>
      </trkpt>
      <trkpt lat="47.33238" lon="4.96007">
        <ele>375.53210449219</ele>
        <time>2011-03-06T15:17:19Z</time>
      </trkpt>
      <trkpt lat="47.33243" lon="4.96016">
        <ele>375.53210449219</ele>
        <time>2011-03-06T15:17:25Z</time>
      </trkpt>
      <trkpt lat="47.33245" lon="4.96022">
        <ele>376.01281738281</ele>
        <time>2011-03-06T15:17:30Z</time>
      </trkpt>
      <trkpt lat="47.33247" lon="4.96028">
        <ele>376.49353027344</ele>
        <time>2011-03-06T15:17:35Z</time>
      </trkpt>
      <trkpt lat="47.33247" lon="4.96033">
        <ele>377.45483398438</ele>
        <time>2011-03-06T15:17:38Z</time>
      </trkpt>
      <trkpt lat="47.33249" lon="4.96041">
        <ele>377.93542480469</ele>
        <time>2011-03-06T15:17:44Z</time>
      </trkpt>
      <trkpt lat="47.33253" lon="4.9605">
        <ele>378.41613769531</ele>
        <time>2011-03-06T15:17:50Z</time>
      </trkpt>
      <trkpt lat="47.33253" lon="4.96054">
        <ele>378.41613769531</ele>
        <time>2011-03-06T15:17:53Z</time>
      </trkpt>
      <trkpt lat="47.33256" lon="4.96058">
        <ele>377.93542480469</ele>
        <time>2011-03-06T15:17:56Z</time>
      </trkpt>
      <trkpt lat="47.3326" lon="4.96067">
        <ele>377.45483398438</ele>
        <time>2011-03-06T15:18:04Z</time>
      </trkpt>
      <trkpt lat="47.33264" lon="4.96073">
        <ele>376.49353027344</ele>
        <time>2011-03-06T15:18:09Z</time>
      </trkpt>
      <trkpt lat="47.33268" lon="4.96078">
        <ele>376.97424316406</ele>
        <time>2011-03-06T15:18:17Z</time>
      </trkpt>
      <trkpt lat="47.33266" lon="4.96076">
        <ele>376.49353027344</ele>
        <time>2011-03-06T15:18:50Z</time>
      </trkpt>
      <trkpt lat="47.33277" lon="4.96086">
        <ele>376.97424316406</ele>
        <time>2011-03-06T15:19:06Z</time>
      </trkpt>
      <trkpt lat="47.33281" lon="4.96095">
        <ele>378.41613769531</ele>
        <time>2011-03-06T15:19:17Z</time>
      </trkpt>
      <trkpt lat="47.33279" lon="4.96097">
        <ele>378.41613769531</ele>
        <time>2011-03-06T15:19:26Z</time>
      </trkpt>
      <trkpt lat="47.33279" lon="4.96099">
        <ele>376.97424316406</ele>
        <time>2011-03-06T15:19:36Z</time>
      </trkpt>
      <trkpt lat="47.33284" lon="4.96106">
        <ele>376.49353027344</ele>
        <time>2011-03-06T15:19:44Z</time>
      </trkpt>
      <trkpt lat="47.33288" lon="4.96121">
        <ele>379.37744140625</ele>
        <time>2011-03-06T15:19:56Z</time>
      </trkpt>
      <trkpt lat="47.3329" lon="4.96131">
        <ele>380.33874511719</ele>
        <time>2011-03-06T15:20:03Z</time>
      </trkpt>
      <trkpt lat="47.33292" lon="4.96138">
        <ele>379.85803222656</ele>
        <time>2011-03-06T15:20:07Z</time>
      </trkpt>
      <trkpt lat="47.33296" lon="4.96155">
        <ele>379.37744140625</ele>
        <time>2011-03-06T15:20:20Z</time>
      </trkpt>
      <trkpt lat="47.33303" lon="4.96181">
        <ele>377.93542480469</ele>
        <time>2011-03-06T15:20:36Z</time>
      </trkpt>
      <trkpt lat="47.33307" lon="4.96196">
        <ele>376.01281738281</ele>
        <time>2011-03-06T15:20:46Z</time>
      </trkpt>
      <trkpt lat="47.33311" lon="4.96219">
        <ele>375.05151367188</ele>
        <time>2011-03-06T15:21:01Z</time>
      </trkpt>
      <trkpt lat="47.33314" lon="4.96245">
        <ele>374.09008789062</ele>
        <time>2011-03-06T15:21:15Z</time>
      </trkpt>
      <trkpt lat="47.33314" lon="4.96258">
        <ele>374.09008789062</ele>
        <time>2011-03-06T15:21:24Z</time>
      </trkpt>
      <trkpt lat="47.33314" lon="4.96275">
        <ele>374.57080078125</ele>
        <time>2011-03-06T15:21:34Z</time>
      </trkpt>
      <trkpt lat="47.33316" lon="4.96288">
        <ele>375.05151367188</ele>
        <time>2011-03-06T15:21:43Z</time>
      </trkpt>
      <trkpt lat="47.3332" lon="4.96316">
        <ele>374.57080078125</ele>
        <time>2011-03-06T15:22:00Z</time>
      </trkpt>
      <trkpt lat="47.33322" lon="4.96337">
        <ele>373.12890625</ele>
        <time>2011-03-06T15:22:13Z</time>
      </trkpt>
      <trkpt lat="47.33326" lon="4.96359">
        <ele>371.68688964844</ele>
        <time>2011-03-06T15:22:26Z</time>
      </trkpt>
      <trkpt lat="47.33329" lon="4.9638">
        <ele>370.24487304688</ele>
        <time>2011-03-06T15:22:39Z</time>
      </trkpt>
      <trkpt lat="47.33329" lon="4.964">
        <ele>370.24487304688</ele>
        <time>2011-03-06T15:22:51Z</time>
      </trkpt>
      <trkpt lat="47.33329" lon="4.96425">
        <ele>371.20629882812</ele>
        <time>2011-03-06T15:23:06Z</time>
      </trkpt>
      <trkpt lat="47.33331" lon="4.96432">
        <ele>371.20629882812</ele>
        <time>2011-03-06T15:23:09Z</time>
      </trkpt>
      <trkpt lat="47.33331" lon="4.9644">
        <ele>372.64819335938</ele>
        <time>2011-03-06T15:23:13Z</time>
      </trkpt>
      <trkpt lat="47.33335" lon="4.96453">
        <ele>374.57080078125</ele>
        <time>2011-03-06T15:23:24Z</time>
      </trkpt>
      <trkpt lat="47.33335" lon="4.96455">
        <ele>374.09008789062</ele>
        <time>2011-03-06T15:23:25Z</time>
      </trkpt>
      <trkpt lat="47.33335" lon="4.96453">
        <ele>373.60949707031</ele>
        <time>2011-03-06T15:23:27Z</time>
      </trkpt>
      <trkpt lat="47.33333" lon="4.96455">
        <ele>372.64819335938</ele>
        <time>2011-03-06T15:23:36Z</time>
      </trkpt>
      <trkpt lat="47.33324" lon="4.96464">
        <ele>370.7255859375</ele>
        <time>2011-03-06T15:23:44Z</time>
      </trkpt>
      <trkpt lat="47.3332" lon="4.96466">
        <ele>370.24487304688</ele>
        <time>2011-03-06T15:23:52Z</time>
      </trkpt>
      <trkpt lat="47.33314" lon="4.9647">
        <ele>371.20629882812</ele>
        <time>2011-03-06T15:23:58Z</time>
      </trkpt>
      <trkpt lat="47.33307" lon="4.9647">
        <ele>371.68688964844</ele>
        <time>2011-03-06T15:24:03Z</time>
      </trkpt>
      <trkpt lat="47.33301" lon="4.96473">
        <ele>372.16748046875</ele>
        <time>2011-03-06T15:24:08Z</time>
      </trkpt>
      <trkpt lat="47.33296" lon="4.96475">
        <ele>372.16748046875</ele>
        <time>2011-03-06T15:24:13Z</time>
      </trkpt>
      <trkpt lat="47.33292" lon="4.96475">
        <ele>372.64819335938</ele>
        <time>2011-03-06T15:24:18Z</time>
      </trkpt>
      <trkpt lat="47.33286" lon="4.96477">
        <ele>372.64819335938</ele>
        <time>2011-03-06T15:24:24Z</time>
      </trkpt>
      <trkpt lat="47.33275" lon="4.96477">
        <ele>374.57080078125</ele>
        <time>2011-03-06T15:24:32Z</time>
      </trkpt>
      <trkpt lat="47.33271" lon="4.96475">
        <ele>376.01281738281</ele>
        <time>2011-03-06T15:24:35Z</time>
      </trkpt>
      <trkpt lat="47.3326" lon="4.96475">
        <ele>375.05151367188</ele>
        <time>2011-03-06T15:24:43Z</time>
      </trkpt>
      <trkpt lat="47.3326" lon="4.96477">
        <ele>375.05151367188</ele>
        <time>2011-03-06T15:24:45Z</time>
      </trkpt>
      <trkpt lat="47.33253" lon="4.96485">
        <ele>375.53210449219</ele>
        <time>2011-03-06T15:25:01Z</time>
      </trkpt>
      <trkpt lat="47.33251" lon="4.96485">
        <ele>375.53210449219</ele>
        <time>2011-03-06T15:25:02Z</time>
      </trkpt>
      <trkpt lat="47.33245" lon="4.9649">
        <ele>376.49353027344</ele>
        <time>2011-03-06T15:25:07Z</time>
      </trkpt>
      <trkpt lat="47.33236" lon="4.965">
        <ele>379.37744140625</ele>
        <time>2011-03-06T15:25:22Z</time>
      </trkpt>
      <trkpt lat="47.33232" lon="4.96503">
        <ele>381.30004882812</ele>
        <time>2011-03-06T15:25:39Z</time>
      </trkpt>
      <trkpt lat="47.3323" lon="4.96505">
        <ele>381.78063964844</ele>
        <time>2011-03-06T15:26:01Z</time>
      </trkpt>
      <trkpt lat="47.33228" lon="4.96505">
        <ele>382.26135253906</ele>
        <time>2011-03-06T15:27:08Z</time>
      </trkpt>
      <trkpt lat="47.33219" lon="4.96507">
        <ele>383.22265625</ele>
        <time>2011-03-06T15:27:17Z</time>
      </trkpt>
      <trkpt lat="47.33211" lon="4.96507">
        <ele>383.22265625</ele>
        <time>2011-03-06T15:27:26Z</time>
      </trkpt>
      <trkpt lat="47.33202" lon="4.96509">
        <ele>383.70324707031</ele>
        <time>2011-03-06T15:27:36Z</time>
      </trkpt>
      <trkpt lat="47.33191" lon="4.96509">
        <ele>384.66479492188</ele>
        <time>2011-03-06T15:27:46Z</time>
      </trkpt>
      <trkpt lat="47.33185" lon="4.96518">
        <ele>386.10668945312</ele>
        <time>2011-03-06T15:27:57Z</time>
      </trkpt>
      <trkpt lat="47.33185" lon="4.96518">
        <ele>386.10668945312</ele>
        <time>2011-03-06T15:28:19Z</time>
      </trkpt>
      <trkpt lat="47.33183" lon="4.96518">
        <ele>386.58740234375</ele>
        <time>2011-03-06T15:28:21Z</time>
      </trkpt>
      <trkpt lat="47.33178" lon="4.96518">
        <ele>386.58740234375</ele>
        <time>2011-03-06T15:28:24Z</time>
      </trkpt>
      <trkpt lat="47.33172" lon="4.9652">
        <ele>387.06799316406</ele>
        <time>2011-03-06T15:28:37Z</time>
      </trkpt>
      <trkpt lat="47.33172" lon="4.9652">
        <ele>387.06799316406</ele>
        <time>2011-03-06T15:28:38Z</time>
      </trkpt>
      <trkpt lat="47.33168" lon="4.96511">
        <ele>387.06799316406</ele>
        <time>2011-03-06T15:28:50Z</time>
      </trkpt>
      <trkpt lat="47.33163" lon="4.96505">
        <ele>387.54858398438</ele>
        <time>2011-03-06T15:28:55Z</time>
      </trkpt>
      <trkpt lat="47.33159" lon="4.96503">
        <ele>388.99060058594</ele>
        <time>2011-03-06T15:29:15Z</time>
      </trkpt>
      <trkpt lat="47.33157" lon="4.96507">
        <ele>388.51000976562</ele>
        <time>2011-03-06T15:29:29Z</time>
      </trkpt>
      <trkpt lat="47.33153" lon="4.96511">
        <ele>388.51000976562</ele>
        <time>2011-03-06T15:29:34Z</time>
      </trkpt>
      <trkpt lat="47.33144" lon="4.96518">
        <ele>388.51000976562</ele>
        <time>2011-03-06T15:29:45Z</time>
      </trkpt>
      <trkpt lat="47.3314" lon="4.96524">
        <ele>388.51000976562</ele>
        <time>2011-03-06T15:29:53Z</time>
      </trkpt>
      <trkpt lat="47.33138" lon="4.96528">
        <ele>388.029296875</ele>
        <time>2011-03-06T15:29:58Z</time>
      </trkpt>
      <trkpt lat="47.33125" lon="4.96546">
        <ele>388.029296875</ele>
        <time>2011-03-06T15:30:12Z</time>
      </trkpt>
      <trkpt lat="47.3312" lon="4.96552">
        <ele>388.029296875</ele>
        <time>2011-03-06T15:30:18Z</time>
      </trkpt>
      <trkpt lat="47.33112" lon="4.96569">
        <ele>387.54858398438</ele>
        <time>2011-03-06T15:30:32Z</time>
      </trkpt>
      <trkpt lat="47.33095" lon="4.96593">
        <ele>386.58740234375</ele>
        <time>2011-03-06T15:30:49Z</time>
      </trkpt>
      <trkpt lat="47.33086" lon="4.96599">
        <ele>387.06799316406</ele>
        <time>2011-03-06T15:30:57Z</time>
      </trkpt>
      <trkpt lat="47.3308" lon="4.96599">
        <ele>386.58740234375</ele>
        <time>2011-03-06T15:31:07Z</time>
      </trkpt>
      <trkpt lat="47.33078" lon="4.96595">
        <ele>386.58740234375</ele>
        <time>2011-03-06T15:31:11Z</time>
      </trkpt>
      <trkpt lat="47.33071" lon="4.9658">
        <ele>386.10668945312</ele>
        <time>2011-03-06T15:31:23Z</time>
      </trkpt>
      <trkpt lat="47.33065" lon="4.96567">
        <ele>385.6259765625</ele>
        <time>2011-03-06T15:31:35Z</time>
      </trkpt>
      <trkpt lat="47.33058" lon="4.96552">
        <ele>384.66479492188</ele>
        <time>2011-03-06T15:31:48Z</time>
      </trkpt>
      <trkpt lat="47.3305" lon="4.96539">
        <ele>385.6259765625</ele>
        <time>2011-03-06T15:32:00Z</time>
      </trkpt>
      <trkpt lat="47.33045" lon="4.96528">
        <ele>386.10668945312</ele>
        <time>2011-03-06T15:32:14Z</time>
      </trkpt>
      <trkpt lat="47.33035" lon="4.96509">
        <ele>387.06799316406</ele>
        <time>2011-03-06T15:32:29Z</time>
      </trkpt>
      <trkpt lat="47.33024" lon="4.96492">
        <ele>388.99060058594</ele>
        <time>2011-03-06T15:32:44Z</time>
      </trkpt>
      <trkpt lat="47.33015" lon="4.96479">
        <ele>388.029296875</ele>
        <time>2011-03-06T15:32:56Z</time>
      </trkpt>
      <trkpt lat="47.33009" lon="4.96473">
        <ele>388.51000976562</ele>
        <time>2011-03-06T15:33:05Z</time>
      </trkpt>
      <trkpt lat="47.32998" lon="4.96458">
        <ele>388.99060058594</ele>
        <time>2011-03-06T15:33:20Z</time>
      </trkpt>
      <trkpt lat="47.3299" lon="4.96447">
        <ele>389.95190429688</ele>
        <time>2011-03-06T15:33:30Z</time>
      </trkpt>
      <trkpt lat="47.32979" lon="4.96434">
        <ele>391.39379882812</ele>
        <time>2011-03-06T15:33:42Z</time>
      </trkpt>
      <trkpt lat="47.3297" lon="4.96425">
        <ele>391.87451171875</ele>
        <time>2011-03-06T15:33:52Z</time>
      </trkpt>
      <trkpt lat="47.32962" lon="4.96417">
        <ele>392.8359375</ele>
        <time>2011-03-06T15:34:01Z</time>
      </trkpt>
      <trkpt lat="47.3296" lon="4.96415">
        <ele>392.8359375</ele>
        <time>2011-03-06T15:34:03Z</time>
      </trkpt>
      <trkpt lat="47.32955" lon="4.9641">
        <ele>393.31652832031</ele>
        <time>2011-03-06T15:34:08Z</time>
      </trkpt>
      <trkpt lat="47.32955" lon="4.96408">
        <ele>393.31652832031</ele>
        <time>2011-03-06T15:34:10Z</time>
      </trkpt>
      <trkpt lat="47.32947" lon="4.964">
        <ele>393.79724121094</ele>
        <time>2011-03-06T15:34:20Z</time>
      </trkpt>
      <trkpt lat="47.3294" lon="4.96391">
        <ele>393.79724121094</ele>
        <time>2011-03-06T15:34:29Z</time>
      </trkpt>
      <trkpt lat="47.32932" lon="4.9638">
        <ele>394.27795410156</ele>
        <time>2011-03-06T15:34:40Z</time>
      </trkpt>
      <trkpt lat="47.32932" lon="4.96378">
        <ele>393.79724121094</ele>
        <time>2011-03-06T15:34:43Z</time>
      </trkpt>
      <trkpt lat="47.32921" lon="4.96365">
        <ele>393.31652832031</ele>
        <time>2011-03-06T15:34:55Z</time>
      </trkpt>
      <trkpt lat="47.32919" lon="4.96361">
        <ele>393.31652832031</ele>
        <time>2011-03-06T15:35:01Z</time>
      </trkpt>
      <trkpt lat="47.3291" lon="4.96352">
        <ele>392.8359375</ele>
        <time>2011-03-06T15:35:11Z</time>
      </trkpt>
      <trkpt lat="47.32902" lon="4.96342">
        <ele>392.8359375</ele>
        <time>2011-03-06T15:35:24Z</time>
      </trkpt>
      <trkpt lat="47.32891" lon="4.96329">
        <ele>392.35534667969</ele>
        <time>2011-03-06T15:35:37Z</time>
      </trkpt>
      <trkpt lat="47.32882" lon="4.96318">
        <ele>391.39379882812</ele>
        <time>2011-03-06T15:35:50Z</time>
      </trkpt>
      <trkpt lat="47.32874" lon="4.9631">
        <ele>389.47119140625</ele>
        <time>2011-03-06T15:36:02Z</time>
      </trkpt>
      <trkpt lat="47.32869" lon="4.96303">
        <ele>389.95190429688</ele>
        <time>2011-03-06T15:36:14Z</time>
      </trkpt>
      <trkpt lat="47.32861" lon="4.96297">
        <ele>390.4326171875</ele>
        <time>2011-03-06T15:36:31Z</time>
      </trkpt>
      <trkpt lat="47.32859" lon="4.96294">
        <ele>390.91320800781</ele>
        <time>2011-03-06T15:36:35Z</time>
      </trkpt>
      <trkpt lat="47.32848" lon="4.96299">
        <ele>389.47119140625</ele>
        <time>2011-03-06T15:36:46Z</time>
      </trkpt>
      <trkpt lat="47.32839" lon="4.96297">
        <ele>388.029296875</ele>
        <time>2011-03-06T15:36:58Z</time>
      </trkpt>
      <trkpt lat="47.32835" lon="4.96292">
        <ele>386.58740234375</ele>
        <time>2011-03-06T15:37:09Z</time>
      </trkpt>
      <trkpt lat="47.32829" lon="4.96279">
        <ele>381.78063964844</ele>
        <time>2011-03-06T15:37:35Z</time>
      </trkpt>
      <trkpt lat="47.32826" lon="4.96271">
        <ele>380.81945800781</ele>
        <time>2011-03-06T15:37:48Z</time>
      </trkpt>
      <trkpt lat="47.3282" lon="4.9626">
        <ele>380.81945800781</ele>
        <time>2011-03-06T15:37:57Z</time>
      </trkpt>
      <trkpt lat="47.32816" lon="4.96256">
        <ele>380.81945800781</ele>
        <time>2011-03-06T15:38:01Z</time>
      </trkpt>
      <trkpt lat="47.32803" lon="4.96243">
        <ele>378.89685058594</ele>
        <time>2011-03-06T15:38:16Z</time>
      </trkpt>
      <trkpt lat="47.32801" lon="4.96241">
        <ele>378.41613769531</ele>
        <time>2011-03-06T15:38:19Z</time>
      </trkpt>
      <trkpt lat="47.32799" lon="4.96232">
        <ele>379.37744140625</ele>
        <time>2011-03-06T15:38:25Z</time>
      </trkpt>
      <trkpt lat="47.32792" lon="4.96224">
        <ele>382.74206542969</ele>
        <time>2011-03-06T15:38:34Z</time>
      </trkpt>
      <trkpt lat="47.32784" lon="4.96217">
        <ele>384.66479492188</ele>
        <time>2011-03-06T15:38:43Z</time>
      </trkpt>
      <trkpt lat="47.32784" lon="4.96215">
        <ele>385.14538574219</ele>
        <time>2011-03-06T15:38:45Z</time>
      </trkpt>
      <trkpt lat="47.32773" lon="4.96204">
        <ele>387.06799316406</ele>
        <time>2011-03-06T15:38:56Z</time>
      </trkpt>
      <trkpt lat="47.32764" lon="4.96194">
        <ele>388.51000976562</ele>
        <time>2011-03-06T15:39:11Z</time>
      </trkpt>
      <trkpt lat="47.32754" lon="4.96185">
        <ele>388.99060058594</ele>
        <time>2011-03-06T15:39:28Z</time>
      </trkpt>
      <trkpt lat="47.32747" lon="4.96174">
        <ele>390.4326171875</ele>
        <time>2011-03-06T15:39:37Z</time>
      </trkpt>
      <trkpt lat="47.32738" lon="4.96168">
        <ele>391.87451171875</ele>
        <time>2011-03-06T15:39:42Z</time>
      </trkpt>
      <trkpt lat="47.3273" lon="4.96157">
        <ele>395.23913574219</ele>
        <time>2011-03-06T15:39:55Z</time>
      </trkpt>
      <trkpt lat="47.32719" lon="4.96142">
        <ele>397.16174316406</ele>
        <time>2011-03-06T15:40:08Z</time>
      </trkpt>
      <trkpt lat="47.32711" lon="4.96134">
        <ele>398.60375976562</ele>
        <time>2011-03-06T15:40:17Z</time>
      </trkpt>
      <trkpt lat="47.32708" lon="4.96129">
        <ele>398.60375976562</ele>
        <time>2011-03-06T15:40:21Z</time>
      </trkpt>
      <trkpt lat="47.32706" lon="4.96127">
        <ele>399.08435058594</ele>
        <time>2011-03-06T15:40:24Z</time>
      </trkpt>
      <trkpt lat="47.32698" lon="4.96114">
        <ele>399.08435058594</ele>
        <time>2011-03-06T15:40:35Z</time>
      </trkpt>
      <trkpt lat="47.32691" lon="4.96101">
        <ele>400.0458984375</ele>
        <time>2011-03-06T15:40:51Z</time>
      </trkpt>
      <trkpt lat="47.32681" lon="4.96082">
        <ele>399.56506347656</ele>
        <time>2011-03-06T15:41:08Z</time>
      </trkpt>
      <trkpt lat="47.3267" lon="4.96065">
        <ele>400.0458984375</ele>
        <time>2011-03-06T15:41:22Z</time>
      </trkpt>
      <trkpt lat="47.32663" lon="4.96043">
        <ele>399.56506347656</ele>
        <time>2011-03-06T15:41:37Z</time>
      </trkpt>
      <trkpt lat="47.32655" lon="4.96024">
        <ele>398.60375976562</ele>
        <time>2011-03-06T15:41:52Z</time>
      </trkpt>
      <trkpt lat="47.32655" lon="4.9602">
        <ele>398.60375976562</ele>
        <time>2011-03-06T15:41:55Z</time>
      </trkpt>
      <trkpt lat="47.32653" lon="4.96018">
        <ele>399.08435058594</ele>
        <time>2011-03-06T15:41:57Z</time>
      </trkpt>
      <trkpt lat="47.32648" lon="4.96009">
        <ele>399.56506347656</ele>
        <time>2011-03-06T15:42:04Z</time>
      </trkpt>
      <trkpt lat="47.32642" lon="4.95994">
        <ele>400.0458984375</ele>
        <time>2011-03-06T15:42:16Z</time>
      </trkpt>
      <trkpt lat="47.3264" lon="4.95986">
        <ele>400.52648925781</ele>
        <time>2011-03-06T15:42:22Z</time>
      </trkpt>
      <trkpt lat="47.32633" lon="4.9597">
        <ele>401.48779296875</ele>
        <time>2011-03-06T15:42:33Z</time>
      </trkpt>
      <trkpt lat="47.32629" lon="4.95958">
        <ele>402.9296875</ele>
        <time>2011-03-06T15:42:42Z</time>
      </trkpt>
      <trkpt lat="47.32625" lon="4.95943">
        <ele>404.37170410156</ele>
        <time>2011-03-06T15:42:52Z</time>
      </trkpt>
      <trkpt lat="47.3262" lon="4.95932">
        <ele>405.81372070312</ele>
        <time>2011-03-06T15:43:00Z</time>
      </trkpt>
      <trkpt lat="47.3262" lon="4.9593">
        <ele>405.81372070312</ele>
        <time>2011-03-06T15:43:01Z</time>
      </trkpt>
      <trkpt lat="47.32614" lon="4.95913">
        <ele>408.69763183594</ele>
        <time>2011-03-06T15:43:13Z</time>
      </trkpt>
      <trkpt lat="47.32612" lon="4.9591">
        <ele>409.17834472656</ele>
        <time>2011-03-06T15:43:15Z</time>
      </trkpt>
      <trkpt lat="47.32608" lon="4.95893">
        <ele>411.10095214844</ele>
        <time>2011-03-06T15:43:25Z</time>
      </trkpt>
      <trkpt lat="47.32605" lon="4.95887">
        <ele>411.58166503906</ele>
        <time>2011-03-06T15:43:29Z</time>
      </trkpt>
      <trkpt lat="47.32603" lon="4.95865">
        <ele>413.02355957031</ele>
        <time>2011-03-06T15:43:43Z</time>
      </trkpt>
      <trkpt lat="47.32603" lon="4.95844">
        <ele>412.06225585938</ele>
        <time>2011-03-06T15:43:57Z</time>
      </trkpt>
      <trkpt lat="47.32601" lon="4.95822">
        <ele>409.65905761719</ele>
        <time>2011-03-06T15:44:11Z</time>
      </trkpt>
      <trkpt lat="47.32601" lon="4.95812">
        <ele>409.17834472656</ele>
        <time>2011-03-06T15:44:17Z</time>
      </trkpt>
      <trkpt lat="47.32599" lon="4.95799">
        <ele>408.69763183594</ele>
        <time>2011-03-06T15:44:25Z</time>
      </trkpt>
      <trkpt lat="47.32599" lon="4.95795">
        <ele>408.69763183594</ele>
        <time>2011-03-06T15:44:27Z</time>
      </trkpt>
      <trkpt lat="47.32599" lon="4.95786">
        <ele>409.17834472656</ele>
        <time>2011-03-06T15:44:33Z</time>
      </trkpt>
      <trkpt lat="47.32597" lon="4.9578">
        <ele>409.17834472656</ele>
        <time>2011-03-06T15:44:36Z</time>
      </trkpt>
      <trkpt lat="47.32593" lon="4.95758">
        <ele>410.1396484375</ele>
        <time>2011-03-06T15:44:48Z</time>
      </trkpt>
      <trkpt lat="47.32593" lon="4.95758">
        <ele>410.1396484375</ele>
        <time>2011-03-06T15:44:49Z</time>
      </trkpt>
      <trkpt lat="47.3259" lon="4.95739">
        <ele>409.65905761719</ele>
        <time>2011-03-06T15:45:01Z</time>
      </trkpt>
      <trkpt lat="47.32588" lon="4.95715">
        <ele>408.69763183594</ele>
        <time>2011-03-06T15:45:15Z</time>
      </trkpt>
      <trkpt lat="47.32588" lon="4.95696">
        <ele>407.25561523438</ele>
        <time>2011-03-06T15:45:26Z</time>
      </trkpt>
      <trkpt lat="47.32588" lon="4.95692">
        <ele>406.77490234375</ele>
        <time>2011-03-06T15:45:29Z</time>
      </trkpt>
      <trkpt lat="47.3259" lon="4.95668">
        <ele>405.3330078125</ele>
        <time>2011-03-06T15:45:45Z</time>
      </trkpt>
      <trkpt lat="47.32593" lon="4.95657">
        <ele>403.89111328125</ele>
        <time>2011-03-06T15:45:54Z</time>
      </trkpt>
      <trkpt lat="47.32599" lon="4.95636">
        <ele>403.41040039062</ele>
        <time>2011-03-06T15:46:09Z</time>
      </trkpt>
      <trkpt lat="47.32601" lon="4.95623">
        <ele>403.41040039062</ele>
        <time>2011-03-06T15:46:19Z</time>
      </trkpt>
      <trkpt lat="47.32601" lon="4.95623">
        <ele>403.41040039062</ele>
        <time>2011-03-06T15:46:20Z</time>
      </trkpt>
    </trkseg>
  </trk>
</gpx>